createdAt,value
2023-02-22T00:01:01.809Z,39.7
2023-02-22T00:03:06.316Z,41.8
2023-02-22T00:05:08.080Z,43.3
2023-02-22T00:07:09.863Z,45.7
2023-02-22T00:09:14.317Z,37
2023-02-22T00:11:16.393Z,37.8
2023-02-22T00:13:17.918Z,34.4
2023-02-22T00:17:24.156Z,34.6
2023-02-22T00:19:25.944Z,41.1
2023-02-22T00:21:30.409Z,26.1
2023-02-22T00:25:33.965Z,36.5
2023-02-22T00:27:38.442Z,31.5
2023-02-22T00:33:46.494Z,27.1
2023-02-22T00:35:48.278Z,38.7
2023-02-22T00:37:50.040Z,28.2
2023-02-22T00:39:54.545Z,27
2023-02-22T00:41:56.395Z,24
2023-02-22T01:16:06.133Z,58.3
2023-02-22T01:22:14.128Z,80.4
2023-02-22T01:24:15.900Z,69.7
2023-02-22T01:26:17.690Z,87.2
2023-02-22T01:28:22.185Z,84.3
2023-02-22T01:30:23.941Z,85.1
2023-02-22T01:32:25.718Z,82.2
2023-02-22T01:36:31.968Z,85.7
2023-02-22T01:38:33.824Z,84.8
2023-02-22T01:40:38.196Z,87.9
2023-02-22T01:42:39.959Z,93.5
2023-02-22T01:44:41.622Z,106.3
2023-02-22T01:46:45.996Z,105.6
2023-02-22T01:48:47.805Z,95.4
2023-02-22T01:50:49.558Z,103.3
2023-02-22T01:56:57.556Z,100.4
2023-02-22T01:59:02.038Z,115.3
2023-02-22T02:01:03.779Z,108.1
2023-02-22T02:03:05.569Z,112.4
2023-02-22T02:05:10.085Z,113.6
2023-02-22T02:11:18.299Z,100
2023-02-22T02:13:19.826Z,123.8
2023-02-22T02:15:23.287Z,109.5
2023-02-22T02:17:27.729Z,104.6
2023-02-22T02:19:29.684Z,96.4
2023-02-22T02:21:31.256Z,100.5
2023-02-22T02:23:35.724Z,106.4
2023-02-22T02:25:37.501Z,98.8
2023-02-22T02:31:45.623Z,97.2
2023-02-22T02:39:55.348Z,94.7
2023-02-22T02:41:59.803Z,94.2
2023-02-22T02:44:01.585Z,97.8
2023-02-22T02:46:03.370Z,89.9
2023-02-22T02:48:07.842Z,85.4
2023-02-22T02:50:09.592Z,75.8
2023-02-22T02:52:11.363Z,74.9
2023-02-22T03:01:26.124Z,63.4
2023-02-22T03:03:30.584Z,69.4
2023-02-22T03:11:40.366Z,63.6
2023-02-22T03:13:42.122Z,57.7
2023-02-22T03:22:56.881Z,53.9
2023-02-22T03:25:01.348Z,51.2
2023-02-22T03:34:17.575Z,50.3
2023-02-22T03:36:19.346Z,48.2
2023-02-22T03:38:21.120Z,39.1
2023-02-22T03:40:25.565Z,41.6
2023-02-22T03:42:27.373Z,48.6
2023-02-22T03:44:29.125Z,35.4
2023-02-22T03:48:35.363Z,36.7
2023-02-22T03:50:37.130Z,34.9
2023-02-22T03:52:41.595Z,39.2
2023-02-22T03:56:45.087Z,36.8
2023-02-22T03:58:49.541Z,56
2023-02-22T04:00:51.312Z,44.6
2023-02-22T04:02:53.130Z,41.2
2023-02-22T04:04:57.545Z,41.6
2023-02-22T04:06:59.259Z,37.1
2023-02-22T04:11:05.450Z,39.4
2023-02-22T04:13:07.199Z,40.8
2023-02-22T04:21:17.219Z,44.7
2023-02-22T04:23:21.358Z,44.7
2023-02-22T04:25:23.093Z,49.8
2023-02-22T04:27:24.873Z,37
2023-02-22T04:29:29.594Z,39.6
2023-02-22T04:31:31.082Z,50
2023-02-22T04:33:32.799Z,42.8
2023-02-22T04:37:38.971Z,42.4
2023-02-22T04:41:45.155Z,51.4
2023-02-22T04:43:46.889Z,42.7
2023-02-22T04:45:48.628Z,43.4
2023-02-22T04:47:53.054Z,44.3
2023-02-22T04:49:54.785Z,43.2
2023-02-22T04:51:56.514Z,50.3
2023-02-22T04:54:00.943Z,51.7
2023-02-22T04:58:04.403Z,53.4
2023-02-22T05:00:08.802Z,61.5
2023-02-22T05:02:10.549Z,56.2
2023-02-22T05:04:12.311Z,55.4
2023-02-22T05:11:24.470Z,62.3
2023-02-22T05:13:26.203Z,58.7
2023-02-22T05:15:30.610Z,55.6
2023-02-22T05:17:32.359Z,62.3
2023-02-22T05:19:34.077Z,60.2
2023-02-22T05:23:40.214Z,68.9
2023-02-22T05:25:41.980Z,60.2
2023-02-22T05:27:46.369Z,62.7
2023-02-22T05:29:48.205Z,60.5
2023-02-22T05:31:49.987Z,70.8
2023-02-22T05:37:57.775Z,63
2023-02-22T05:44:05.662Z,65.1
2023-02-22T05:46:10.193Z,73.6
2023-02-22T05:48:11.820Z,69.1
2023-02-22T05:50:13.551Z,62
2023-02-22T05:52:17.956Z,73.7
2023-02-22T05:56:21.448Z,82.6
2023-02-22T05:58:25.866Z,70.3
2023-02-22T06:00:27.634Z,75
2023-02-22T06:02:29.367Z,81.4
2023-02-22T06:04:33.789Z,69.1
2023-02-22T06:06:35.517Z,69.9
2023-02-22T06:08:37.316Z,79
2023-02-22T06:10:41.719Z,76.7
2023-02-22T06:12:43.488Z,87.2
2023-02-22T06:16:49.620Z,76.2
2023-02-22T06:18:51.399Z,87.3
2023-02-22T06:20:53.168Z,74.3
2023-02-22T06:22:57.537Z,78.6
2023-02-22T06:27:01.022Z,79.6
2023-02-22T06:29:05.458Z,83.2
2023-02-22T06:31:07.247Z,91.2
2023-02-22T06:33:08.932Z,98.8
2023-02-22T06:35:13.376Z,119.5
2023-02-22T06:39:16.828Z,116.4
2023-02-22T06:44:28.237Z,144.8
2023-02-22T06:46:29.976Z,144.1
2023-02-22T06:50:36.262Z,146.8
2023-02-22T06:52:37.944Z,142.4
2023-02-22T06:54:39.639Z,135.8
2023-02-22T06:56:44.057Z,171.2
2023-02-22T06:58:45.790Z,149.8
2023-02-22T07:00:47.571Z,157.8
2023-02-22T07:02:51.965Z,152.7
2023-02-22T07:06:55.445Z,176.2
2023-02-22T07:08:59.853Z,172.3
2023-02-22T07:11:01.601Z,175.4
2023-02-22T07:13:03.346Z,173.8
2023-02-22T07:15:07.771Z,182
2023-02-22T07:17:09.628Z,175.4
2023-02-22T07:19:11.255Z,185.8
2023-02-22T07:21:15.925Z,191.8
2023-02-22T07:23:17.439Z,192.9
2023-02-22T07:25:19.187Z,182.8
2023-02-22T07:27:23.740Z,202.9
2023-02-22T07:31:29.746Z,178.6
2023-02-22T07:38:39.944Z,172.8
2023-02-22T07:40:41.701Z,175.8
2023-02-22T07:42:46.116Z,162
2023-02-22T07:44:47.889Z,156
2023-02-22T07:46:49.633Z,164.7
2023-02-22T07:48:54.044Z,148.5
2023-02-22T07:50:55.812Z,157.8
2023-02-22T07:52:57.556Z,153.1
2023-02-22T07:55:02.001Z,123.1
2023-02-22T07:57:03.713Z,141.5
2023-02-22T07:59:05.450Z,164.3
2023-02-22T08:04:16.194Z,135.1
2023-02-22T08:06:17.956Z,155.5
2023-02-22T08:08:20.084Z,126.7
2023-02-22T08:12:25.868Z,133.9
2023-02-22T08:14:27.603Z,135.4
2023-02-22T08:16:32.045Z,124
2023-02-22T08:22:39.969Z,138.3
2023-02-22T08:26:43.455Z,145.5
2023-02-22T08:28:47.899Z,124.8
2023-02-22T08:30:49.710Z,122.4
2023-02-22T08:32:51.554Z,126.4
2023-02-22T08:34:55.860Z,114.6
2023-02-22T08:36:57.632Z,132.9
2023-02-22T08:38:59.383Z,112.3
2023-02-22T08:41:03.810Z,123
2023-02-22T08:45:07.326Z,117.4
2023-02-22T08:47:11.740Z,112.8
2023-02-22T08:51:15.584Z,98.9
2023-02-22T08:53:19.759Z,97.5
2023-02-22T08:59:27.704Z,96.9
2023-02-22T09:01:33.362Z,114.1
2023-02-22T09:03:31.304Z,106.4
2023-02-22T09:09:39.226Z,101.3
2023-02-22T09:15:47.258Z,86.4
2023-02-22T09:17:51.732Z,89.6
2023-02-22T09:19:53.501Z,73.6
2023-02-22T09:21:55.259Z,90.1
2023-02-22T09:23:59.697Z,72.2
2023-02-22T09:30:07.691Z,81.7
2023-02-22T09:34:11.199Z,84.7
2023-02-22T09:39:20.282Z,78.3
2023-02-22T09:41:21.996Z,90.3
2023-02-22T09:43:23.783Z,67.5
2023-02-22T09:49:31.824Z,74.1
2023-02-22T10:01:47.620Z,62.3
2023-02-22T10:03:52.085Z,77.9
2023-02-22T10:07:55.422Z,73.9
2023-02-22T10:09:59.791Z,75.3
2023-02-22T10:12:01.494Z,66.2
2023-02-22T10:14:03.301Z,60.2
2023-02-22T10:21:16.316Z,74.8
2023-02-22T10:23:18.032Z,57.7
2023-02-22T10:27:24.145Z,71.2
2023-02-22T10:29:25.897Z,68.3
2023-02-22T10:31:30.422Z,64.6
2023-02-22T10:33:31.981Z,58.7
2023-02-22T10:35:33.730Z,65.1
2023-02-22T10:37:38.235Z,62.6
2023-02-22T10:39:39.945Z,62.1
2023-02-22T10:41:41.603Z,53.2
2023-02-22T10:44:03.030Z,67
2023-02-22T10:58:18.675Z,51.8
2023-02-22T11:04:27.402Z,50.4
2023-02-22T11:06:29.156Z,41.9
2023-02-22T11:08:30.907Z,63.5
2023-02-22T11:10:32.693Z,68.6
2023-02-22T11:12:34.438Z,48.4
2023-02-22T11:16:38.061Z,52.6
2023-02-22T11:18:43.176Z,57.6
2023-02-22T11:20:44.903Z,63.3
2023-02-22T11:22:46.698Z,70
2023-02-22T11:24:49.468Z,58.4
2023-02-22T11:26:50.240Z,58.7
2023-02-22T11:28:51.937Z,64.5
2023-02-22T11:30:53.804Z,66
2023-02-22T11:35:08.969Z,66.2
2023-02-22T11:37:02.520Z,68.7
2023-02-22T11:38:05.102Z,62.8
2023-02-22T11:40:06.857Z,68.9
2023-02-22T11:42:08.611Z,48.8
2023-02-22T11:44:10.339Z,57.5
2023-02-22T11:46:15.603Z,65.6
2023-02-22T11:48:17.356Z,56.9
2023-02-22T11:52:20.912Z,51.8
2023-02-22T11:54:22.711Z,73
2023-02-22T11:56:37.011Z,53.4
2023-02-22T11:58:26.263Z,56.1
2023-02-22T12:00:31.508Z,61.3
2023-02-22T12:02:33.344Z,70.6
2023-02-22T12:06:36.881Z,57.1
2023-02-22T12:08:38.658Z,60.2
2023-02-22T12:10:40.416Z,53.8
2023-02-22T12:12:42.217Z,59.1
2023-02-22T12:14:47.461Z,54.5
2023-02-22T12:16:49.233Z,49.4
2023-02-22T12:18:51.021Z,56.4
2023-02-22T12:20:52.852Z,41.6
2023-02-22T12:22:54.565Z,50
2023-02-22T12:26:58.129Z,61.1
2023-02-22T12:33:06.918Z,44.8
2023-02-22T12:34:09.769Z,57.4
2023-02-22T12:36:11.315Z,45.6
2023-02-22T12:38:13.109Z,52.2
2023-02-22T12:40:14.889Z,51.1
2023-02-22T12:42:20.116Z,53.1
2023-02-22T12:44:21.905Z,48
2023-02-22T12:46:23.706Z,50.9
2023-02-22T12:48:25.479Z,44.9
2023-02-22T12:50:27.212Z,51.3
2023-02-22T12:52:28.986Z,49.9
2023-02-22T12:54:30.787Z,42.5
2023-02-22T12:56:36.040Z,39.8
2023-02-22T12:58:37.788Z,39.5
2023-02-22T13:00:39.568Z,39.3
2023-02-22T13:02:41.361Z,42.4
2023-02-22T13:04:43.173Z,54.3
2023-02-22T13:08:46.692Z,31.3
2023-02-22T13:12:53.787Z,41
2023-02-22T13:14:55.492Z,57.8
2023-02-22T13:16:57.279Z,35.6
2023-02-22T13:18:59.048Z,32.2
2023-02-22T13:23:02.625Z,32.6
2023-02-22T13:25:07.890Z,31.1
2023-02-22T13:27:09.656Z,39.3
2023-02-22T13:30:14.134Z,42.3
2023-02-22T13:32:15.956Z,34.1
2023-02-22T13:34:17.642Z,38.2
2023-02-22T13:38:24.730Z,31.4
2023-02-22T13:40:26.504Z,37.6
2023-02-22T13:42:28.286Z,33
2023-02-22T13:44:30.095Z,36.5
2023-02-22T13:46:31.930Z,47.7
2023-02-22T13:48:33.644Z,44.3
2023-02-22T13:50:35.424Z,37.3
2023-02-22T13:52:40.711Z,37.9
2023-02-22T13:54:42.507Z,33.5
2023-02-22T13:56:44.263Z,31.5
2023-02-22T13:58:46.030Z,31.1
2023-02-22T14:00:47.794Z,27.9
2023-02-22T14:02:49.650Z,37.4
2023-02-22T14:04:51.328Z,34.6
2023-02-22T14:06:57.423Z,31.6
2023-02-22T14:08:59.199Z,25.4
2023-02-22T14:11:00.973Z,38.8
2023-02-22T14:15:04.868Z,16.9
2023-02-22T14:17:06.301Z,45.2
2023-02-22T14:19:08.064Z,26.5
2023-02-22T14:21:13.394Z,20.8
2023-02-22T14:25:27.808Z,25.6
2023-02-22T14:31:38.264Z,19.4
2023-02-22T14:33:44.308Z,22.6
2023-02-22T14:37:46.860Z,24.1
2023-02-22T14:39:51.021Z,27.3
2023-02-22T14:41:50.503Z,28.2
2023-02-22T14:43:52.164Z,22.9
2023-02-22T14:45:53.996Z,22.3
2023-02-22T14:50:00.940Z,28.8
2023-02-22T14:52:02.722Z,22.2
2023-02-22T14:54:04.473Z,25.5
2023-02-22T14:56:06.204Z,26.9
2023-02-22T15:00:09.764Z,26.9
2023-02-22T15:02:15.044Z,23.9
2023-02-22T15:04:16.824Z,23.1
2023-02-22T15:06:18.543Z,34.2
2023-02-22T15:08:20.303Z,25.9
2023-02-22T15:10:22.074Z,42.1
2023-02-22T15:12:23.867Z,40.1
2023-02-22T15:14:26.732Z,41.2
2023-02-22T15:16:30.945Z,30.4
2023-02-22T15:18:32.792Z,28.1
2023-02-22T15:20:34.451Z,29.7
2023-02-22T15:21:37.046Z,33.4
2023-02-22T15:35:52.890Z,30.1
2023-02-22T15:37:54.713Z,23.8
2023-02-22T15:39:56.440Z,29.1
2023-02-22T15:41:58.200Z,29.1
2023-02-22T15:46:05.295Z,41.5
2023-02-22T15:48:06.969Z,39.1
2023-02-22T15:50:08.753Z,34.4
2023-02-22T15:52:10.529Z,28.1
2023-02-22T15:54:21.585Z,26.3
2023-02-22T15:56:14.013Z,30.9
2023-02-22T15:58:19.331Z,33.7
2023-02-22T16:00:21.054Z,28.3
2023-02-22T16:06:26.331Z,38.7
2023-02-22T16:14:36.810Z,37.7
2023-02-22T16:16:38.593Z,34.4
2023-02-22T16:17:44.737Z,37.5
2023-02-22T16:19:43.003Z,27.8
2023-02-22T16:21:44.683Z,32.5
2023-02-22T16:23:46.456Z,30.8
2023-02-22T16:25:51.688Z,38.9
2023-02-22T16:27:55.103Z,33.6
2023-02-22T16:29:56.837Z,34.1
2023-02-22T16:31:58.624Z,47.2
2023-02-22T16:38:03.748Z,41.6
2023-02-22T16:40:08.955Z,34.5
2023-02-22T16:44:12.457Z,40.8
2023-02-22T16:46:14.210Z,36.6
2023-02-22T16:50:18.364Z,37.3
2023-02-22T16:52:20.038Z,39.9
2023-02-22T16:54:25.247Z,50.7
2023-02-22T16:56:28.218Z,42.6
2023-02-22T16:58:28.692Z,46.7
2023-02-22T17:00:30.830Z,43.5
2023-02-22T17:06:35.724Z,37.2
2023-02-22T17:13:46.995Z,35.8
2023-02-22T17:15:48.832Z,46.7
2023-02-22T17:17:50.529Z,38.5
2023-02-22T17:19:52.252Z,32.8
2023-02-22T17:21:57.470Z,43.3
2023-02-22T17:23:59.206Z,23.3
2023-02-22T17:26:00.931Z,30.3
2023-02-22T17:28:02.745Z,33.9
2023-02-22T17:30:04.530Z,29.8
2023-02-22T17:32:06.225Z,24.3
2023-02-22T17:34:07.913Z,29.6
2023-02-22T17:36:13.125Z,32.3
2023-02-22T17:38:14.865Z,24.7
2023-02-22T17:46:21.899Z,28
2023-02-22T17:50:28.794Z,33.7
2023-02-22T17:52:30.557Z,21.1
2023-02-22T17:54:32.258Z,23.5
2023-02-22T17:56:34.029Z,26.4
2023-02-22T17:58:35.846Z,18.1
2023-02-22T18:00:37.490Z,19.3
2023-02-22T18:02:39.295Z,23.5
2023-02-22T18:04:44.424Z,21.8
2023-02-22T18:06:46.175Z,19.6
2023-02-22T18:08:47.905Z,21.8
2023-02-22T18:10:52.300Z,24
2023-02-22T18:17:00.263Z,24.6
2023-02-22T18:23:08.122Z,24.7
2023-02-22T18:25:09.854Z,25.9
2023-02-22T18:27:11.583Z,23.6
2023-02-22T18:29:15.982Z,24.3
2023-02-22T18:33:19.528Z,30
2023-02-22T18:39:27.480Z,23.1
2023-02-22T18:48:27.419Z,30
2023-02-22T18:50:29.273Z,29.4
2023-02-22T18:52:30.951Z,28.1
2023-02-22T18:54:35.446Z,34.1
2023-02-22T18:56:37.168Z,35
2023-02-22T18:58:39.077Z,35.3
2023-02-22T19:00:43.485Z,35.4
2023-02-22T19:04:46.941Z,39.2
2023-02-22T19:12:03.801Z,30.5
2023-02-22T19:14:05.545Z,34.8
2023-02-22T19:16:10.076Z,37.8
2023-02-22T19:18:11.664Z,39.3
2023-02-22T19:24:19.670Z,56.6
2023-02-22T19:26:21.723Z,44.3
2023-02-22T19:28:25.998Z,46.2
2023-02-22T19:32:29.690Z,47.9
2023-02-22T19:34:33.870Z,54.7
2023-02-22T19:36:35.590Z,52.1
2023-02-22T19:38:37.307Z,48.1
2023-02-22T19:40:41.693Z,48.6
2023-02-22T19:42:43.413Z,61.9
2023-02-22T19:44:45.140Z,54.8
2023-02-22T19:56:06.874Z,53.8
2023-02-22T19:58:08.636Z,66.1
2023-02-22T20:00:10.488Z,65.1
2023-02-22T20:02:14.816Z,80.9
2023-02-22T20:04:16.645Z,68
2023-02-22T20:06:18.299Z,61.8
2023-02-22T20:08:22.634Z,56.5
2023-02-22T20:16:32.240Z,65.8
2023-02-22T20:23:40.430Z,63.3
2023-02-22T20:25:42.167Z,77.9
2023-02-22T20:29:48.280Z,64
2023-02-22T20:31:50.181Z,68.4
2023-02-22T20:33:51.849Z,65.6
2023-02-22T20:35:56.124Z,78.4
2023-02-22T20:37:57.851Z,60.7
2023-02-22T20:39:59.566Z,67.3
2023-02-22T20:42:03.972Z,74.6
2023-02-22T20:46:07.493Z,75.1
2023-02-22T20:48:11.811Z,73.4
2023-02-22T20:50:13.530Z,76.1
2023-02-22T20:52:15.266Z,80.1
2023-02-22T20:54:19.639Z,67
2023-02-22T21:00:27.705Z,73.4
2023-02-22T21:02:29.419Z,81.5
2023-02-22T21:04:31.235Z,91.7
2023-02-22T21:06:35.606Z,78.1
2023-02-22T21:10:39.059Z,77.1
2023-02-22T21:12:43.488Z,80
2023-02-22T21:16:46.903Z,86
2023-02-22T21:26:01.571Z,104.6
2023-02-22T21:28:05.958Z,94.2
2023-02-22T21:30:07.670Z,96.2
2023-02-22T21:32:09.573Z,96.4
2023-02-22T21:34:13.787Z,87.4
2023-02-22T21:36:15.472Z,94.2
2023-02-22T21:38:17.174Z,92.4
2023-02-22T21:40:21.571Z,95.8
2023-02-22T21:42:23.385Z,95.1
2023-02-22T21:49:29.534Z,96.5
2023-02-22T21:51:31.596Z,101.8
2023-02-22T21:53:33.118Z,103.8
2023-02-22T21:55:37.920Z,105
2023-02-22T21:57:39.713Z,96.3
2023-02-22T21:59:41.206Z,97.6
2023-02-22T22:10:59.268Z,97.7
2023-02-22T22:17:07.351Z,98.3
2023-02-22T22:19:09.153Z,104.8
2023-02-22T22:21:10.961Z,106.9
2023-02-22T22:23:15.390Z,96.2
2023-02-22T22:25:17.142Z,102
2023-02-22T22:29:23.353Z,100.5
2023-02-22T22:31:25.222Z,102
2023-02-22T22:33:26.858Z,108.8
2023-02-22T22:35:31.359Z,100.9
2023-02-22T22:39:34.896Z,107.7
2023-02-22T22:46:47.911Z,107.1
2023-02-22T22:48:49.711Z,109
2023-02-22T22:52:55.952Z,121.9
2023-02-22T22:54:57.619Z,103
2023-02-22T22:57:02.005Z,113.8
2023-02-22T23:01:05.503Z,113
2023-02-22T23:03:10.102Z,106.7
2023-02-22T23:05:11.761Z,109.4
2023-02-22T23:07:13.570Z,129.1
2023-02-22T23:09:18.001Z,117.8
2023-02-22T23:11:19.973Z,105
2023-02-22T23:13:21.604Z,105
2023-02-22T23:17:27.882Z,127.8
2023-02-22T23:26:39.866Z,99.9
2023-02-22T23:28:41.554Z,114.7
2023-02-22T23:30:45.956Z,102.2
2023-02-22T23:32:47.629Z,100.9
2023-02-22T23:39:58.755Z,107.4
2023-02-22T23:42:00.436Z,101.6
2023-02-22T23:44:02.260Z,99.8
2023-02-22T23:46:06.741Z,94.5
2023-02-22T23:48:08.515Z,105.4
2023-02-22T23:50:10.318Z,102.7
2023-02-22T23:52:14.828Z,91.7
2023-02-22T23:54:16.589Z,101.9
2023-02-22T23:56:18.302Z,86.4
2023-02-22T23:58:22.679Z,96.4
